Time;durP1;ratioP1;P1;durP2;ratioP2;P2;SDS_P1;SDS_P2;PMS_P1;PMS_P2;Temp;Humidity;BMP_temperature;BMP_pressure;BME280_temperature;BME280_humidity;BME280_pressure;Samples;Min_cycle;Max_cycle;Signal;HPM_P1;HPM_P2
2021/12/29 00:00:04;;;;;;;4.82;2.20;;;9.20;97.40;;;;;;2086392;28;20036;-88
2021/12/29 00:01:05;;;;;;;3.63;2.20;;;9.20;97.40;;;;;;2080752;28;20147;-89
2021/12/29 00:02:06;;;;;;;4.82;2.30;;;9.20;97.40;;;;;;2096955;28;20036;-87
2021/12/29 00:03:06;;;;;;;3.83;2.30;;;9.20;97.40;;;;;;2104904;28;20051;-87
2021/12/29 00:04:07;;;;;;;4.00;2.30;;;9.20;97.40;;;;;;2105394;28;20379;-88
2021/12/29 00:05:09;;;;;;;5.35;3.20;;;9.20;97.40;;;;;;2086854;28;20037;-88
2021/12/29 00:06:09;;;;;;;4.88;2.60;;;9.20;97.40;;;;;;2087561;28;20052;-87
2021/12/29 00:07:10;;;;;;;4.72;2.60;;;9.20;97.40;;;;;;2090057;28;20052;-88
2021/12/29 00:08:11;;;;;;;4.63;2.65;;;9.20;97.40;;;;;;2080379;28;20026;-87
2021/12/29 00:09:12;;;;;;;8.20;3.53;;;9.20;97.40;;;;;;2081486;28;20037;-88
2021/12/29 00:10:15;;;;;;;5.03;2.92;;;9.20;97.40;;;;;;2088253;28;20029;-88
2021/12/29 00:11:16;;;;;;;6.30;2.63;;;9.20;97.40;;;;;;2080116;28;20046;-88
2021/12/29 00:12:24;;;;;;;6.65;2.88;;;9.20;97.40;;;;;;2081487;28;20468;-89
2021/12/29 00:13:26;;;;;;;5.55;2.75;;;9.20;97.40;;;;;;2089624;28;20072;-88
2021/12/29 00:14:26;;;;;;;4.25;2.70;;;9.20;97.40;;;;;;2088968;28;20037;-88
2021/12/29 00:15:28;;;;;;;3.90;2.63;;;9.20;97.40;;;;;;2072937;28;20034;-88
2021/12/29 00:16:33;;;;;;;4.35;2.67;;;9.20;97.40;;;;;;2068420;28;20106;-88
2021/12/29 00:17:33;;;;;;;5.57;2.70;;;9.20;97.40;;;;;;2076167;28;20042;-88
2021/12/29 00:18:35;;;;;;;5.03;2.58;;;9.20;97.40;;;;;;2080777;28;20483;-88
2021/12/29 00:19:35;;;;;;;5.82;2.80;;;9.20;97.40;;;;;;2080981;28;20070;-88
2021/12/29 00:20:36;;;;;;;4.40;2.67;;;9.20;97.40;;;;;;2087750;28;20122;-88
2021/12/29 00:21:37;;;;;;;4.47;2.35;;;9.20;97.40;;;;;;2089349;28;20457;-88
2021/12/29 00:22:38;;;;;;;4.13;2.63;;;9.20;97.40;;;;;;2075032;28;20408;-88
2021/12/29 00:23:39;;;;;;;5.00;2.83;;;9.20;97.40;;;;;;2080443;28;20033;-88
2021/12/29 00:24:40;;;;;;;5.22;2.70;;;9.20;97.40;;;;;;2099688;28;20089;-88
2021/12/29 00:25:41;;;;;;;5.05;2.72;;;9.20;97.40;;;;;;2087959;28;20040;-88
2021/12/29 00:26:42;;;;;;;4.40;2.40;;;9.20;97.40;;;;;;2072548;28;20034;-88
2021/12/29 00:27:42;;;;;;;4.03;2.20;;;9.20;97.40;;;;;;2092966;28;20067;-88
2021/12/29 00:28:43;;;;;;;5.07;2.33;;;9.20;97.40;;;;;;2096666;28;20032;-88
2021/12/29 00:29:44;;;;;;;5.97;2.50;;;9.20;97.40;;;;;;2097932;28;20125;-88
2021/12/29 00:30:45;;;;;;;4.18;2.58;;;9.20;97.40;;;;;;2097447;28;20086;-88
2021/12/29 00:31:46;;;;;;;5.47;2.30;;;9.20;97.40;;;;;;2097256;28;20033;-88
2021/12/29 00:32:47;;;;;;;4.25;2.35;;;9.20;97.40;;;;;;2098172;28;20044;-88
2021/12/29 00:33:47;;;;;;;5.78;2.50;;;9.20;97.40;;;;;;2097495;28;20043;-88
2021/12/29 00:34:48;;;;;;;4.38;2.60;;;9.20;97.40;;;;;;2093590;28;20127;-89
2021/12/29 00:35:50;;;;;;;3.40;2.10;;;9.20;97.40;;;;;;2088762;28;20029;-88
2021/12/29 00:36:51;;;;;;;4.07;2.20;;;9.20;97.40;;;;;;2081157;28;20049;-87
2021/12/29 00:37:51;;;;;;;3.80;2.10;;;9.20;97.40;;;;;;2085628;28;20029;-89
2021/12/29 00:38:53;;;;;;;4.68;2.42;;;9.20;97.40;;;;;;2096342;28;20033;-87
2021/12/29 00:39:53;;;;;;;5.38;2.45;;;9.20;97.40;;;;;;2096393;28;20033;-88
2021/12/29 00:40:54;;;;;;;4.50;2.35;;;9.20;97.40;;;;;;2080418;28;20052;-89
2021/12/29 00:41:55;;;;;;;4.38;2.30;;;9.20;97.40;;;;;;2079661;28;20542;-88
2021/12/29 00:42:56;;;;;;;5.50;2.40;;;9.20;97.40;;;;;;2079787;28;20034;-88
2021/12/29 00:43:57;;;;;;;3.58;2.15;;;9.20;97.50;;;;;;2062614;28;20042;-87
2021/12/29 00:44:57;;;;;;;4.13;2.13;;;9.20;97.40;;;;;;2076290;28;20419;-88
2021/12/29 00:45:58;;;;;;;4.72;2.50;;;9.20;97.40;;;;;;2073006;28;20030;-88
2021/12/29 00:46:59;;;;;;;4.53;2.28;;;9.20;97.40;;;;;;2084293;28;20072;-88
2021/12/29 00:48:00;;;;;;;3.80;2.20;;;9.20;97.40;;;;;;2098178;28;20473;-89
2021/12/29 00:49:01;;;;;;;5.55;2.45;;;9.20;97.40;;;;;;2097313;28;20041;-89
2021/12/29 00:50:05;;;;;;;4.18;2.38;;;9.20;97.40;;;;;;2098358;28;20044;-89
2021/12/29 00:51:06;;;;;;;6.25;2.42;;;9.20;97.40;;;;;;2096713;28;20060;-88
2021/12/29 00:52:09;;;;;;;4.90;2.38;;;9.20;97.40;;;;;;2096672;28;20032;-88
2021/12/29 00:53:10;;;;;;;4.47;2.50;;;9.20;97.40;;;;;;2096786;28;20559;-88
2021/12/29 00:54:10;;;;;;;3.63;2.10;;;9.20;97.40;;;;;;2097854;28;20062;-88
2021/12/29 00:55:13;;;;;;;4.15;2.30;;;9.20;97.40;;;;;;2097655;28;20088;-88
2021/12/29 00:56:13;;;;;;;3.22;2.00;;;9.20;97.40;;;;;;2096750;28;20051;-88
2021/12/29 00:57:14;;;;;;;5.55;2.35;;;9.20;97.40;;;;;;2094896;28;20032;-88
2021/12/29 00:58:15;;;;;;;3.97;2.10;;;9.20;97.40;;;;;;2089645;28;20028;-89
2021/12/29 00:59:15;;;;;;;5.32;2.47;;;9.20;97.40;;;;;;2086398;28;20100;-88
2021/12/29 01:00:18;;;;;;;4.03;2.22;;;9.20;97.40;;;;;;2088811;28;20060;-88
2021/12/29 01:01:19;;;;;;;5.07;2.88;;;9.20;97.40;;;;;;2097063;28;20474;-88
2021/12/29 01:02:20;;;;;;;3.45;2.15;;;9.20;97.40;;;;;;2097123;28;20025;-88
2021/12/29 01:03:20;;;;;;;5.10;2.80;;;9.20;97.40;;;;;;2097092;28;20044;-88
2021/12/29 01:04:21;;;;;;;4.88;2.92;;;9.20;97.40;;;;;;2099036;28;20037;-88
2021/12/29 01:05:22;;;;;;;5.53;2.70;;;9.20;97.40;;;;;;2090737;28;20114;-88
2021/12/29 01:06:23;;;;;;;4.95;2.60;;;9.20;97.40;;;;;;2093801;28;20092;-88
2021/12/29 01:07:24;;;;;;;4.93;2.75;;;9.30;97.40;;;;;;2099047;28;20127;-87
2021/12/29 01:08:24;;;;;;;5.22;2.92;;;9.20;97.40;;;;;;2101348;28;20036;-89
2021/12/29 01:09:25;;;;;;;4.60;2.65;;;9.20;97.40;;;;;;2092758;28;20127;-89
2021/12/29 01:10:26;;;;;;;4.80;2.60;;;9.20;97.40;;;;;;2099977;28;20056;-89
2021/12/29 01:11:27;;;;;;;4.38;2.70;;;9.20;97.50;;;;;;2098669;28;20032;-88
2021/12/29 01:12:27;;;;;;;5.28;2.83;;;9.20;97.40;;;;;;2097485;28;20120;-89
2021/12/29 01:13:33;;;;;;;5.20;2.95;;;9.20;97.50;;;;;;2097662;28;20028;-88
2021/12/29 01:14:34;;;;;;;5.75;3.03;;;9.20;97.70;;;;;;2097213;28;20464;-88
2021/12/29 01:16:59;;;;;;;4.97;2.85;;;9.20;97.40;;;;;;2097314;28;20445;-88
2021/12/29 01:18:05;;;;;;;4.82;3.00;;;9.20;97.40;;;;;;2089703;28;20121;-88
2021/12/29 01:19:10;;;;;;;5.93;2.80;;;9.20;97.40;;;;;;2089567;28;20037;-88
2021/12/29 01:20:11;;;;;;;5.38;3.22;;;9.20;97.40;;;;;;2109096;28;20032;-89
2021/12/29 01:21:12;;;;;;;5.75;2.90;;;9.20;97.40;;;;;;2098768;28;20433;-88
2021/12/29 01:22:12;;;;;;;5.22;2.65;;;9.20;97.40;;;;;;2080680;28;20029;-88
2021/12/29 01:23:13;;;;;;;6.63;3.20;;;9.20;97.40;;;;;;2083562;28;20037;-88
2021/12/29 01:24:15;;;;;;;5.00;2.70;;;9.20;97.40;;;;;;2080143;28;20041;-87
2021/12/29 01:25:17;;;;;;;4.15;2.55;;;9.20;97.40;;;;;;2089381;28;20014;-87
2021/12/29 01:26:18;;;;;;;4.18;2.63;;;9.20;97.40;;;;;;2099402;28;20029;-88
2021/12/29 01:27:19;;;;;;;4.85;2.78;;;9.20;97.50;;;;;;2086445;28;20064;-88
2021/12/29 01:28:19;;;;;;;5.05;2.78;;;9.20;97.50;;;;;;2089416;28;20041;-89
2021/12/29 01:29:21;;;;;;;6.35;3.00;;;9.20;97.50;;;;;;2086318;28;20052;-87
2021/12/29 01:30:22;;;;;;;5.15;2.90;;;9.20;97.50;;;;;;2092406;28;20403;-88
2021/12/29 01:31:23;;;;;;;5.00;2.75;;;9.20;97.40;;;;;;2088564;28;20037;-88
2021/12/29 01:32:24;;;;;;;6.18;2.92;;;9.20;97.40;;;;;;2088463;28;20033;-88
2021/12/29 01:33:25;;;;;;;6.47;2.83;;;9.20;97.50;;;;;;2088254;28;20041;-88
2021/12/29 01:34:26;;;;;;;5.88;3.25;;;9.20;97.50;;;;;;2091307;28;20029;-88
2021/12/29 01:35:26;;;;;;;6.63;3.40;;;9.20;97.50;;;;;;2083980;28;20032;-88
2021/12/29 01:36:27;;;;;;;5.20;3.30;;;9.20;97.50;;;;;;2073110;28;20041;-85
2021/12/29 01:37:27;;;;;;;7.90;3.90;;;9.20;97.50;;;;;;2076237;28;20041;-86
2021/12/29 01:38:28;;;;;;;7.93;4.00;;;9.20;97.50;;;;;;2081618;28;20042;-85
2021/12/29 01:39:29;;;;;;;8.25;4.20;;;9.30;97.50;;;;;;2072171;28;20524;-86
2021/12/29 01:40:31;;;;;;;7.85;4.65;;;9.20;97.50;;;;;;2081468;28;20045;-85
2021/12/29 01:41:32;;;;;;;8.80;4.78;;;9.20;97.50;;;;;;2096980;28;20067;-85
2021/12/29 01:42:32;;;;;;;7.75;4.35;;;9.20;97.50;;;;;;2098191;28;20088;-85
2021/12/29 01:43:33;;;;;;;8.43;4.60;;;9.20;97.50;;;;;;2098041;28;20512;-85
2021/12/29 01:44:34;;;;;;;7.90;4.60;;;9.20;97.50;;;;;;2096333;28;20037;-89
2021/12/29 01:45:36;;;;;;;11.32;5.10;;;9.20;97.50;;;;;;2097069;28;20376;-87
2021/12/29 01:46:37;;;;;;;9.05;4.82;;;9.20;97.50;;;;;;2091538;28;20032;-88
2021/12/29 01:47:38;;;;;;;7.63;4.72;;;9.20;97.50;;;;;;2088815;28;20091;-88
2021/12/29 01:48:39;;;;;;;9.15;4.60;;;9.20;97.50;;;;;;2092446;28;20033;-88
2021/12/29 01:49:41;;;;;;;10.32;4.90;;;9.20;97.50;;;;;;2088778;28;20099;-87
2021/12/29 01:50:47;;;;;;;8.13;4.78;;;9.30;97.50;;;;;;2091195;28;20041;-88
2021/12/29 01:51:51;;;;;;;9.77;4.90;;;9.20;97.50;;;;;;2081009;28;20385;-88
2021/12/29 01:52:57;;;;;;;8.38;4.50;;;9.20;97.50;;;;;;2082269;28;20026;-88
2021/12/29 01:55:15;;;;;;;8.77;4.95;;;9.20;97.50;;;;;;2092043;28;20116;-88
2021/12/29 01:56:16;;;;;;;9.10;4.65;;;9.20;97.50;;;;;;2097168;28;20040;-87
2021/12/29 01:57:18;;;;;;;9.85;4.93;;;9.20;97.50;;;;;;2083135;28;20116;-88
2021/12/29 01:58:21;;;;;;;8.60;4.80;;;9.20;97.50;;;;;;2080430;28;20034;-87
2021/12/29 01:59:23;;;;;;;8.40;4.78;;;9.20;97.50;;;;;;2078689;28;20100;-88
2021/12/29 02:00:27;;;;;;;7.78;4.50;;;9.20;97.50;;;;;;2089040;28;20029;-89
2021/12/29 02:01:28;;;;;;;9.00;5.25;;;9.20;97.50;;;;;;2103682;28;20081;-88
2021/12/29 02:02:28;;;;;;;8.32;4.75;;;9.20;97.50;;;;;;2096201;28;20471;-88
2021/12/29 02:03:29;;;;;;;8.88;4.60;;;9.20;97.50;;;;;;2095442;28;20079;-88
2021/12/29 02:04:30;;;;;;;8.60;5.10;;;9.20;97.50;;;;;;2092288;28;20064;-88
2021/12/29 02:05:30;;;;;;;8.57;5.05;;;9.20;97.50;;;;;;2089186;28;20037;-88
2021/12/29 02:06:31;;;;;;;9.00;5.00;;;9.30;97.50;;;;;;2074557;28;20041;-88
2021/12/29 02:07:32;;;;;;;8.95;5.20;;;9.20;97.50;;;;;;2067166;28;20035;-87
2021/12/29 02:08:35;;;;;;;10.50;5.40;;;9.20;97.50;;;;;;2080676;28;20053;-87
2021/12/29 02:09:36;;;;;;;9.15;5.35;;;9.20;97.50;;;;;;2088718;28;20080;-88
2021/12/29 02:10:44;;;;;;;10.65;5.80;;;9.20;97.50;;;;;;2089833;28;20045;-88
2021/12/29 02:11:45;;;;;;;11.00;5.53;;;9.20;97.50;;;;;;2091596;28;20068;-88
2021/12/29 02:12:46;;;;;;;10.75;5.78;;;9.20;97.50;;;;;;2101308;28;20040;-88
2021/12/29 02:13:47;;;;;;;12.25;5.68;;;9.20;97.50;;;;;;2096720;28;20049;-89
2021/12/29 02:14:47;;;;;;;10.93;5.63;;;9.20;97.50;;;;;;2096976;28;20036;-88
2021/12/29 02:15:48;;;;;;;11.70;5.75;;;9.20;97.50;;;;;;2092855;28;20065;-88
2021/12/29 02:16:49;;;;;;;11.38;6.10;;;9.20;97.50;;;;;;2093773;28;20033;-88
2021/12/29 02:17:50;;;;;;;9.98;5.57;;;9.20;97.50;;;;;;2081739;28;20042;-88
2021/12/29 02:18:57;;;;;;;9.20;5.43;;;9.20;97.50;;;;;;2094218;28;20512;-88
2021/12/29 02:20:03;;;;;;;9.65;5.43;;;9.20;97.50;;;;;;2096445;28;20636;-88
2021/12/29 02:21:04;;;;;;;10.23;5.22;;;9.20;97.50;;;;;;2097143;28;20474;-88
2021/12/29 02:22:14;;;;;;;8.25;5.22;;;9.20;97.50;;;;;;2095793;28;20045;-89
2021/12/29 02:23:29;;;;;;;10.27;5.78;;;9.20;97.50;;;;;;2097487;28;20036;-87
2021/12/29 02:24:42;;;;;;;11.02;5.85;;;9.20;97.50;;;;;;2086764;28;20470;-89
2021/12/29 02:25:56;;;;;;;10.57;5.18;;;9.20;97.50;;;;;;2095294;28;20083;-88
2021/12/29 02:26:59;;;;;;;9.02;5.03;;;9.20;97.50;;;;;;2093236;28;20044;-90
2021/12/29 02:28:01;;;;;;;9.57;4.60;;;9.20;97.50;;;;;;2095168;28;20515;-89
2021/12/29 02:29:08;;;;;;;11.82;5.72;;;9.20;97.50;;;;;;2096517;28;20071;-89
2021/12/29 02:30:10;;;;;;;12.65;5.53;;;9.20;97.80;;;;;;2104003;28;20464;-89
2021/12/29 02:31:11;;;;;;;10.15;5.55;;;9.20;97.50;;;;;;2098531;28;20525;-88
2021/12/29 02:32:11;;;;;;;9.57;5.70;;;9.20;97.50;;;;;;2095841;28;20039;-88
2021/12/29 02:33:14;;;;;;;9.60;4.95;;;9.20;97.50;;;;;;2097090;28;20457;-89
2021/12/29 02:34:16;;;;;;;9.27;5.20;;;9.20;97.50;;;;;;2094833;28;20037;-89
2021/12/29 02:35:17;;;;;;;8.70;4.85;;;9.20;97.80;;;;;;2096825;28;20163;-89
2021/12/29 02:36:19;;;;;;;9.20;4.88;;;9.20;97.50;;;;;;2079782;28;20037;-88
2021/12/29 02:37:20;;;;;;;10.23;5.30;;;9.20;97.50;;;;;;2082122;28;20026;-89
2021/12/29 02:38:25;;;;;;;8.95;4.82;;;9.20;97.50;;;;;;2097369;28;20037;-89
2021/12/29 02:39:26;;;;;;;8.02;5.05;;;9.20;97.50;;;;;;2103994;28;20024;-89
2021/12/29 02:40:29;;;;;;;10.65;5.30;;;9.20;97.50;;;;;;2091757;28;20123;-89
2021/12/29 02:41:31;;;;;;;9.57;4.97;;;9.20;97.50;;;;;;2090182;28;20111;-88
2021/12/29 02:42:39;;;;;;;9.98;4.95;;;9.20;97.50;;;;;;2065951;28;20034;-88
2021/12/29 02:43:40;;;;;;;8.98;5.20;;;9.20;97.50;;;;;;2075611;28;20495;-89
2021/12/29 02:44:42;;;;;;;10.10;5.65;;;9.20;97.50;;;;;;2077403;28;20029;-89
2021/12/29 02:45:48;;;;;;;10.68;5.47;;;9.20;97.50;;;;;;2072795;28;20046;-88
2021/12/29 02:46:49;;;;;;;8.23;4.95;;;9.20;97.50;;;;;;2073877;28;20515;-88
2021/12/29 02:47:50;;;;;;;8.70;4.72;;;9.20;97.50;;;;;;2090005;28;20053;-89
2021/12/29 02:48:59;;;;;;;10.60;5.00;;;9.20;97.50;;;;;;2082166;28;20045;-89
2021/12/29 02:50:00;;;;;;;8.98;4.72;;;9.20;97.50;;;;;;2082205;28;20064;-89
2021/12/29 02:51:04;;;;;;;8.52;4.68;;;9.20;97.50;;;;;;2098649;28;20064;-88
2021/12/29 02:52:08;;;;;;;7.80;4.47;;;9.20;97.50;;;;;;2096957;28;20029;-89
2021/12/29 02:53:09;;;;;;;7.75;4.53;;;9.20;97.50;;;;;;2097794;28;20506;-88
2021/12/29 02:54:10;;;;;;;8.05;4.50;;;9.20;97.50;;;;;;2096912;28;20036;-89
2021/12/29 02:55:12;;;;;;;7.53;4.35;;;9.20;97.50;;;;;;2098097;28;20131;-88
2021/12/29 02:56:13;;;;;;;7.13;4.10;;;9.20;97.50;;;;;;2081502;28;20523;-89
2021/12/29 02:57:13;;;;;;;7.63;4.40;;;9.20;97.50;;;;;;2081932;28;20037;-89
2021/12/29 02:58:14;;;;;;;8.50;4.45;;;9.20;97.50;;;;;;2088023;28;20479;-88
2021/12/29 02:59:17;;;;;;;6.40;3.88;;;9.20;97.50;;;;;;2087568;28;20037;-88
2021/12/29 03:00:19;;;;;;;7.15;4.30;;;9.20;97.50;;;;;;2089582;28;20045;-89
2021/12/29 03:01:20;;;;;;;6.88;4.00;;;9.20;97.50;;;;;;2095773;28;20520;-89
2021/12/29 03:02:21;;;;;;;7.35;4.18;;;9.20;97.50;;;;;;2081775;28;20496;-88
2021/12/29 03:03:24;;;;;;;7.28;4.22;;;9.20;97.50;;;;;;2082130;28;20038;-89
2021/12/29 03:04:25;;;;;;;7.55;4.03;;;9.20;97.50;;;;;;2095066;28;20024;-88
2021/12/29 03:05:26;;;;;;;7.60;4.05;;;9.20;97.50;;;;;;2105568;28;20185;-89
2021/12/29 03:06:27;;;;;;;7.70;4.28;;;9.20;97.50;;;;;;2092463;28;20495;-89
2021/12/29 03:07:28;;;;;;;6.60;3.67;;;9.20;97.50;;;;;;2099151;28;20044;-89
2021/12/29 03:08:28;;;;;;;7.13;4.00;;;9.20;97.50;;;;;;2084162;28;20502;-88
2021/12/29 03:09:29;;;;;;;6.00;4.00;;;9.20;97.50;;;;;;2080815;28;20120;-88
2021/12/29 03:10:30;;;;;;;7.28;4.00;;;9.20;97.50;;;;;;2089196;28;20029;-89
2021/12/29 03:11:31;;;;;;;6.72;4.15;;;9.20;97.50;;;;;;2098581;28;20037;-88
2021/12/29 03:12:32;;;;;;;7.97;3.90;;;9.20;97.50;;;;;;2097739;28;20029;-88
2021/12/29 03:13:36;;;;;;;8.45;4.55;;;9.20;97.50;;;;;;2090121;28;20033;-89
2021/12/29 03:14:36;;;;;;;6.90;4.10;;;9.20;97.50;;;;;;2097536;28;20029;-88
2021/12/29 03:15:38;;;;;;;8.18;4.32;;;9.20;97.50;;;;;;2088970;28;20419;-89
2021/12/29 03:16:41;;;;;;;6.82;3.92;;;9.20;97.50;;;;;;2087962;28;20044;-88
2021/12/29 03:17:42;;;;;;;7.47;4.03;;;9.20;97.50;;;;;;2090426;28;20041;-89
2021/12/29 03:18:43;;;;;;;6.35;3.80;;;9.20;97.50;;;;;;2096767;28;20040;-89
2021/12/29 03:19:44;;;;;;;6.88;3.97;;;9.20;97.50;;;;;;2080662;28;20102;-89
2021/12/29 03:20:46;;;;;;;6.85;4.20;;;9.20;97.50;;;;;;2084625;28;20138;-89
2021/12/29 03:21:46;;;;;;;7.30;3.75;;;9.20;97.50;;;;;;2095019;28;20078;-88
2021/12/29 03:22:47;;;;;;;5.97;3.92;;;9.20;97.50;;;;;;2094993;28;20588;-89
2021/12/29 03:23:49;;;;;;;6.35;4.15;;;9.30;97.50;;;;;;2089465;28;20107;-88
2021/12/29 03:24:50;;;;;;;7.00;3.80;;;9.20;97.50;;;;;;2096454;28;20033;-88
2021/12/29 03:25:52;;;;;;;6.63;3.97;;;9.20;97.50;;;;;;2096981;28;20075;-88
2021/12/29 03:26:52;;;;;;;6.15;4.00;;;9.20;97.50;;;;;;2097072;28;20028;-88
2021/12/29 03:28:00;;;;;;;7.38;4.00;;;9.20;97.50;;;;;;2090144;28;20152;-86
2021/12/29 03:29:01;;;;;;;6.95;3.80;;;9.20;97.50;;;;;;2096989;28;20097;-86
2021/12/29 03:30:03;;;;;;;6.85;4.10;;;9.20;97.50;;;;;;2099132;28;20423;-86
2021/12/29 03:31:05;;;;;;;7.75;4.05;;;9.30;97.50;;;;;;2098906;28;20568;-85
2021/12/29 03:32:09;;;;;;;7.40;3.78;;;9.20;97.50;;;;;;2099540;28;20066;-85
2021/12/29 03:33:09;;;;;;;6.38;3.60;;;9.20;97.50;;;;;;2099296;28;20033;-86
2021/12/29 03:34:10;;;;;;;6.00;3.63;;;9.20;97.50;;;;;;2098657;28;20411;-85
2021/12/29 03:35:11;;;;;;;7.47;3.75;;;9.20;97.50;;;;;;2099390;28;20512;-88
2021/12/29 03:36:12;;;;;;;6.85;3.38;;;9.20;97.40;;;;;;2098177;28;20032;-89
2021/12/29 03:37:13;;;;;;;6.07;3.25;;;9.20;97.50;;;;;;2080999;28;20118;-88
2021/12/29 03:38:18;;;;;;;7.65;3.50;;;9.20;97.50;;;;;;2065076;28;20520;-89
2021/12/29 03:39:19;;;;;;;7.80;3.78;;;9.30;97.50;;;;;;2075293;28;20026;-88
2021/12/29 03:40:19;;;;;;;9.35;3.58;;;9.20;97.50;;;;;;2097345;28;20044;-88
2021/12/29 03:41:23;;;;;;;6.43;3.30;;;9.20;97.50;;;;;;2097459;28;20040;-89
2021/12/29 03:42:24;;;;;;;7.22;3.63;;;9.20;97.50;;;;;;2098565;28;20040;-88
2021/12/29 03:43:27;;;;;;;5.38;3.33;;;9.20;97.50;;;;;;2092111;28;20045;-89
2021/12/29 03:44:28;;;;;;;8.55;3.20;;;9.20;97.50;;;;;;2098365;28;20027;-89
2021/12/29 03:45:29;;;;;;;6.50;3.03;;;9.30;97.50;;;;;;2076875;28;20085;-89
2021/12/29 03:46:30;;;;;;;7.53;3.03;;;9.20;97.50;;;;;;2097165;28;20548;-88
2021/12/29 03:47:32;;;;;;;5.50;2.60;;;9.20;97.50;;;;;;2105255;28;20036;-84
2021/12/29 03:48:36;;;;;;;6.82;2.78;;;9.20;97.50;;;;;;2085548;28;20021;-88
2021/12/29 03:49:37;;;;;;;6.20;2.80;;;9.20;97.50;;;;;;2098640;28;20028;-89
2021/12/29 03:50:38;;;;;;;6.22;3.10;;;9.30;97.50;;;;;;2097263;28;20043;-89
2021/12/29 03:51:38;;;;;;;7.35;2.88;;;9.20;97.50;;;;;;2080588;28;20499;-89
2021/12/29 03:52:39;;;;;;;5.95;3.00;;;9.20;97.50;;;;;;2079279;28;20045;-89
2021/12/29 03:53:40;;;;;;;7.60;2.90;;;9.20;97.50;;;;;;2082064;28;20033;-89
2021/12/29 03:54:41;;;;;;;5.32;2.78;;;9.20;97.50;;;;;;2081843;28;20145;-89
2021/12/29 03:55:43;;;;;;;6.63;2.90;;;9.20;97.50;;;;;;2085502;28;20408;-89
2021/12/29 03:56:44;;;;;;;6.38;2.63;;;9.20;97.50;;;;;;2081731;28;20073;-89
2021/12/29 03:57:46;;;;;;;6.15;2.55;;;9.20;97.50;;;;;;2096463;28;20070;-90
2021/12/29 03:58:46;;;;;;;5.57;2.80;;;9.30;97.50;;;;;;2093452;28;20095;-89
2021/12/29 03:59:47;;;;;;;5.18;2.67;;;9.30;97.50;;;;;;2087765;28;20025;-89
2021/12/29 04:00:50;;;;;;;6.43;2.58;;;9.20;97.70;;;;;;2088683;28;20099;-89
2021/12/29 04:01:52;;;;;;;7.25;3.03;;;9.20;97.50;;;;;;2088601;28;20068;-89
2021/12/29 04:02:53;;;;;;;7.50;3.17;;;9.20;97.50;;;;;;2093851;28;20083;-89
2021/12/29 04:03:54;;;;;;;6.60;3.10;;;9.20;97.50;;;;;;2081936;28;20029;-89
2021/12/29 04:04:54;;;;;;;5.72;2.78;;;9.20;97.70;;;;;;2089112;28;20403;-89
2021/12/29 04:05:56;;;;;;;8.35;2.42;;;9.20;97.50;;;;;;2088558;28;20033;-88
2021/12/29 04:06:56;;;;;;;6.03;3.30;;;9.20;97.50;;;;;;2088606;28;20056;-89
2021/12/29 04:07:58;;;;;;;8.05;3.20;;;9.20;97.50;;;;;;2104805;28;20136;-89
2021/12/29 04:08:59;;;;;;;4.85;2.55;;;9.30;97.50;;;;;;2097874;28;20028;-89
2021/12/29 04:10:00;;;;;;;7.80;2.92;;;9.20;97.50;;;;;;2089286;28;20124;-89
2021/12/29 04:11:00;;;;;;;5.95;3.20;;;9.20;97.50;;;;;;2089626;28;20040;-89
2021/12/29 04:12:01;;;;;;;5.80;2.83;;;9.20;97.50;;;;;;2072762;28;20038;-89
2021/12/29 04:13:03;;;;;;;5.63;2.97;;;9.20;97.50;;;;;;2081019;28;20377;-89
2021/12/29 04:14:04;;;;;;;6.65;3.35;;;9.20;97.50;;;;;;2081573;28;20037;-89
2021/12/29 04:15:06;;;;;;;9.43;3.55;;;9.20;97.50;;;;;;2073146;28;20068;-89
2021/12/29 04:16:12;;;;;;;6.38;3.35;;;9.20;97.50;;;;;;2089286;28;20404;-89
2021/12/29 04:17:15;;;;;;;7.93;3.30;;;9.20;97.50;;;;;;2096252;28;20453;-89
2021/12/29 04:18:26;;;;;;;6.70;3.00;;;9.20;97.50;;;;;;2072952;28;20038;-89
2021/12/29 04:19:39;;;;;;;9.20;3.47;;;9.20;97.50;;;;;;2076415;28;20042;-88
2021/12/29 04:20:54;;;;;;;7.32;3.38;;;9.20;97.50;;;;;;2089497;28;20045;-89
2021/12/29 04:21:57;;;;;;;8.30;3.30;;;9.20;97.50;;;;;;2094195;28;20474;-89
2021/12/29 04:22:58;;;;;;;7.75;3.40;;;9.20;97.50;;;;;;2091776;28;20395;-89
2021/12/29 04:23:59;;;;;;;8.82;3.60;;;9.20;97.50;;;;;;2098442;28;20127;-89
2021/12/29 04:25:00;;;;;;;9.48;3.45;;;9.20;97.50;;;;;;2098515;28;20028;-89
2021/12/29 04:26:03;;;;;;;6.45;3.67;;;9.20;97.50;;;;;;2097246;28;20041;-90
2021/12/29 04:27:06;;;;;;;8.95;3.33;;;9.20;97.50;;;;;;2098779;28;20044;-89
2021/12/29 04:28:10;;;;;;;7.25;3.33;;;9.20;97.50;;;;;;2100484;28;20068;-89
2021/12/29 04:29:13;;;;;;;9.38;3.83;;;9.20;97.50;;;;;;2094677;28;20127;-89
2021/12/29 04:30:14;;;;;;;8.23;3.47;;;9.20;97.50;;;;;;2100577;28;20541;-89
2021/12/29 04:31:14;;;;;;;6.85;3.35;;;9.20;97.50;;;;;;2091206;28;20065;-89
2021/12/29 04:32:15;;;;;;;5.90;3.28;;;9.20;97.50;;;;;;2090073;28;20511;-89
2021/12/29 04:33:17;;;;;;;6.45;3.30;;;9.20;97.50;;;;;;2097999;28;20028;-89
2021/12/29 04:34:17;;;;;;;6.43;3.33;;;9.20;97.50;;;;;;2088811;28;20045;-89
2021/12/29 04:35:22;;;;;;;5.28;2.90;;;9.20;97.50;;;;;;2073584;28;20140;-88
2021/12/29 04:36:26;;;;;;;6.90;3.22;;;9.20;97.50;;;;;;2088901;28;20114;-89
2021/12/29 04:37:26;;;;;;;8.65;3.10;;;9.20;97.50;;;;;;2089278;28;20068;-89
2021/12/29 04:38:27;;;;;;;7.43;3.38;;;9.20;97.50;;;;;;2097608;28;20434;-89
2021/12/29 04:39:27;;;;;;;5.55;2.88;;;9.20;97.50;;;;;;2080317;28;20044;-89
2021/12/29 04:40:28;;;;;;;6.88;3.40;;;9.20;97.50;;;;;;2072598;28;20139;-88
2021/12/29 04:41:29;;;;;;;6.90;3.22;;;9.20;97.50;;;;;;2097094;28;20067;-89
2021/12/29 04:42:30;;;;;;;7.47;3.20;;;9.10;97.50;;;;;;2114873;28;20038;-89
2021/12/29 04:43:30;;;;;;;6.68;3.15;;;9.20;97.50;;;;;;2097689;28;20486;-89
2021/12/29 04:44:31;;;;;;;10.23;3.28;;;9.10;97.50;;;;;;2097069;28;20032;-89
2021/12/29 04:45:32;;;;;;;6.65;3.35;;;9.20;97.50;;;;;;2102079;28;20100;-88
2021/12/29 04:46:39;;;;;;;5.85;2.95;;;9.10;97.50;;;;;;2089403;28;20037;-89
2021/12/29 04:47:42;;;;;;;6.55;2.88;;;9.20;97.50;;;;;;2089516;28;20466;-89
2021/12/29 04:48:51;;;;;;;5.07;2.90;;;9.10;97.50;;;;;;2089866;28;20500;-89
2021/12/29 04:49:52;;;;;;;7.47;2.88;;;9.10;97.50;;;;;;2082083;28;20049;-88
2021/12/29 04:51:04;;;;;;;6.50;2.97;;;9.20;97.50;;;;;;2073162;28;20173;-88
2021/12/29 04:52:04;;;;;;;5.13;2.80;;;9.10;97.50;;;;;;2072124;28;20062;-88
2021/12/29 04:53:08;;;;;;;4.20;2.50;;;9.10;97.50;;;;;;2081845;28;20037;-88
2021/12/29 04:54:09;;;;;;;6.20;2.97;;;9.10;97.50;;;;;;2104929;28;20031;-88
2021/12/29 04:55:10;;;;;;;7.63;2.63;;;9.10;97.50;;;;;;2089572;28;20132;-88
2021/12/29 04:56:10;;;;;;;5.75;2.67;;;9.10;97.50;;;;;;2077416;28;20597;-89
2021/12/29 04:57:11;;;;;;;6.22;2.60;;;9.10;97.50;;;;;;2079620;28;20049;-88
2021/12/29 04:58:12;;;;;;;4.10;2.40;;;9.10;97.50;;;;;;2072165;28;20413;-89
2021/12/29 04:59:15;;;;;;;6.53;2.50;;;9.10;97.50;;;;;;2095157;28;20797;-88
2021/12/29 05:00:18;;;;;;;6.78;2.85;;;9.10;97.50;;;;;;2079691;28;20037;-87
2021/12/29 05:01:19;;;;;;;4.53;2.45;;;9.10;97.50;;;;;;2073272;28;20042;-88
2021/12/29 05:02:19;;;;;;;5.38;2.63;;;9.20;97.50;;;;;;2079295;28;20057;-88
2021/12/29 05:03:20;;;;;;;5.95;2.83;;;9.10;97.50;;;;;;2095091;28;20037;-89
2021/12/29 05:04:29;;;;;;;6.95;2.67;;;9.20;97.50;;;;;;2081343;28;20520;-89
2021/12/29 05:09:11;;;;;;;3.67;2.38;;;9.10;97.50;;;;;;2111487;28;20473;-88
2021/12/29 05:10:12;;;;;;;6.70;2.65;;;9.20;97.50;;;;;;2089302;28;20123;-89
2021/12/29 05:11:15;;;;;;;6.03;3.00;;;9.10;97.50;;;;;;2088456;28;20033;-88
2021/12/29 05:12:15;;;;;;;5.60;2.90;;;9.10;97.50;;;;;;2092030;28;20120;-89
2021/12/29 05:13:16;;;;;;;5.13;2.50;;;9.10;97.50;;;;;;2085086;28;20037;-89
2021/12/29 05:14:17;;;;;;;4.35;2.75;;;9.10;97.50;;;;;;2089321;28;20033;-89
2021/12/29 05:15:17;;;;;;;6.57;2.70;;;9.20;97.50;;;;;;2097240;28;20130;-89
2021/12/29 05:16:18;;;;;;;4.55;2.70;;;9.10;97.50;;;;;;2096334;28;20490;-86
2021/12/29 05:17:19;;;;;;;5.47;2.60;;;9.10;97.50;;;;;;2098091;28;20041;-89
2021/12/29 05:18:19;;;;;;;5.70;2.70;;;9.10;97.50;;;;;;2089486;28;20036;-86
2021/12/29 05:19:20;;;;;;;6.65;2.80;;;9.20;97.50;;;;;;2088810;28;20136;-85
2021/12/29 05:20:21;;;;;;;7.97;2.92;;;9.10;97.50;;;;;;2097574;28;20150;-86
2021/12/29 05:21:22;;;;;;;4.70;2.80;;;9.10;97.50;;;;;;2097444;28;20048;-86
2021/12/29 05:22:23;;;;;;;7.20;2.85;;;9.10;97.50;;;;;;2098392;28;20132;-86
2021/12/29 05:23:24;;;;;;;5.88;2.95;;;9.10;97.50;;;;;;2097858;28;20048;-86
2021/12/29 05:24:25;;;;;;;5.88;2.88;;;9.10;97.50;;;;;;2098318;28;20021;-86
2021/12/29 05:25:27;;;;;;;6.38;2.80;;;9.10;97.50;;;;;;2096543;28;20041;-88
2021/12/29 05:26:27;;;;;;;5.22;2.83;;;9.10;97.50;;;;;;2090438;28;20064;-88
2021/12/29 05:27:28;;;;;;;5.55;2.92;;;9.20;97.50;;;;;;2096798;28;20033;-89
2021/12/29 05:28:28;;;;;;;5.03;3.10;;;9.10;97.50;;;;;;2095298;28;20451;-89
2021/12/29 05:29:29;;;;;;;4.85;2.92;;;9.10;97.40;;;;;;2090289;28;20040;-89
2021/12/29 05:30:30;;;;;;;5.90;3.00;;;9.10;97.50;;;;;;2091754;28;20076;-89
2021/12/29 05:31:31;;;;;;;4.90;2.92;;;9.10;97.50;;;;;;2096758;28;20040;-89